Ely, Nevada
Current Conditions -  °F | °C
As of 1:53 AM on Friday 28 Nov 2014 (Local Time) from KELY Reporting Station
Clear Clear  
Wind Chill: 24°   Ceiling: Unl
Heat Index: 31°   Visibility: 10mi
Dew Point: 12°   Wind: 7mph
Humidity: 46%   Direction: 130°SE
Pressure: 30.2"   Gusts: NA
Location:  39.25°N, 114.87°W
Report Text: KELY 280953Z AUTO 13006KT 10SM CLR M01/M11 A3020 RMK AO2 SLP188 T10061111
Loading
Personal Weather Stations






























Interactive Weather Map New forecast layout! Learn more

10-Day Weather Forecast

Advertisements
Track Severe Weather on mobile